createdAt,value
2022-10-24T00:03:43.223Z,64.18
2022-10-24T00:08:44.672Z,63.71
2022-10-24T00:13:46.163Z,63.31
2022-10-24T00:18:47.677Z,63.19
2022-10-24T00:23:49.123Z,62.89
2022-10-24T00:28:50.641Z,62.22
2022-10-24T00:33:52.153Z,62.16
2022-10-24T00:38:53.661Z,63.75
2022-10-24T00:44:13.867Z,63.52
2022-10-24T00:49:16.339Z,62.82
2022-10-24T00:54:17.970Z,62.58
2022-10-24T00:59:19.422Z,63.09
2022-10-24T01:04:20.863Z,62.54
2022-10-24T01:09:50.983Z,62.11
2022-10-24T01:14:59.869Z,62.21
2022-10-24T01:20:23.022Z,62.86
2022-10-24T01:25:45.255Z,63.43
2022-10-24T01:30:49.392Z,62.52
2022-10-24T01:35:56.358Z,61.56
2022-10-24T01:41:00.277Z,61.69
2022-10-24T01:46:03.462Z,60.94
2022-10-24T01:51:04.965Z,60.72
2022-10-24T01:56:06.855Z,60.96
2022-10-24T02:01:10.497Z,61.04
2022-10-24T02:06:16.178Z,61.97
2022-10-24T02:11:17.625Z,60.92
2022-10-24T02:16:19.469Z,61.03
2022-10-24T02:21:49.299Z,62.39
2022-10-24T02:26:58.208Z,62.26
2022-10-24T02:31:59.672Z,61.86
2022-10-24T02:37:01.130Z,61.54
2022-10-24T02:42:02.867Z,61.32
2022-10-24T02:47:04.723Z,62.80
2022-10-24T02:52:06.344Z,62.02
2022-10-24T02:57:07.799Z,61.38
2022-10-24T03:02:09.259Z,61.89
2022-10-24T03:07:10.818Z,61.41
2022-10-24T03:12:16.003Z,60.96
2022-10-24T03:17:17.466Z,60.49
2022-10-24T03:22:19.142Z,60.54
2022-10-24T03:27:20.583Z,59.67
2022-10-24T03:32:22.141Z,59.81
2022-10-24T03:37:23.662Z,58.87
2022-10-24T03:42:25.137Z,58.40
2022-10-24T03:47:26.579Z,58.26
2022-10-24T03:52:28.029Z,60.34
2022-10-24T03:57:29.478Z,59.98
2022-10-24T04:02:30.933Z,60.80
2022-10-24T04:07:32.378Z,60.47
2022-10-24T04:12:33.843Z,60.48
2022-10-24T04:17:35.325Z,60.01
2022-10-24T04:22:36.770Z,61.38
2022-10-24T04:27:40.571Z,61.32
2022-10-24T04:32:42.197Z,60.50
2022-10-24T04:37:43.851Z,60.65
2022-10-24T04:42:45.463Z,60.76
2022-10-24T04:47:47.423Z,60.40
2022-10-24T04:52:49.075Z,61.40
2022-10-24T04:57:50.517Z,61.69
2022-10-24T05:02:54.155Z,61.76
2022-10-24T05:07:58.238Z,61.79
2022-10-24T05:12:59.731Z,62.51
2022-10-24T05:18:01.183Z,61.87
2022-10-24T05:23:02.647Z,61.06
2022-10-24T05:28:04.122Z,61.47
2022-10-24T05:33:05.669Z,60.32
2022-10-24T05:38:07.205Z,60.31
2022-10-24T05:43:08.665Z,60.70
2022-10-24T05:48:10.121Z,59.74
2022-10-24T05:53:12.961Z,59.95
2022-10-24T05:58:14.432Z,60.15
2022-10-24T06:03:15.883Z,60.02
2022-10-24T06:08:17.536Z,60.09
2022-10-24T06:13:19.057Z,60.17
2022-10-24T06:18:20.556Z,61.40
2022-10-24T06:23:22.055Z,62.39
2022-10-24T06:28:23.504Z,61.29
2022-10-24T06:33:24.960Z,61.00
2022-10-24T06:38:26.642Z,60.72
2022-10-24T06:43:28.094Z,60.15
2022-10-24T06:48:29.554Z,60.45
2022-10-24T06:53:31.025Z,59.53
2022-10-24T06:58:33.288Z,58.64
2022-10-24T07:03:34.797Z,58.80
2022-10-24T07:08:36.255Z,58.73
2022-10-24T07:13:37.810Z,59.22
2022-10-24T07:18:39.353Z,58.76
2022-10-24T07:23:40.921Z,58.92
2022-10-24T07:28:43.065Z,58.52
2022-10-24T07:33:44.515Z,57.61
2022-10-24T07:38:46.954Z,57.77
2022-10-24T07:43:48.456Z,57.19
2022-10-24T07:48:50.381Z,56.89
2022-10-24T07:53:51.871Z,55.93
2022-10-24T07:58:53.411Z,56.15
2022-10-24T08:03:55.439Z,55.31
2022-10-24T08:08:56.945Z,55.14
2022-10-24T08:13:58.440Z,56.11
2022-10-24T08:18:59.938Z,55.34
2022-10-24T08:24:01.385Z,55.55
2022-10-24T08:29:04.382Z,55.11
2022-10-24T08:34:06.109Z,54.17
2022-10-24T08:39:07.562Z,55.08
2022-10-24T08:44:39.955Z,54.18
2022-10-24T08:50:10.485Z,54.54
2022-10-24T08:55:25.094Z,55.09
2022-10-24T09:00:40.680Z,54.33
2022-10-24T09:05:55.353Z,53.85
2022-10-24T09:11:03.942Z,55.99
2022-10-24T09:16:05.265Z,55.24
2022-10-24T09:21:07.632Z,55.01
2022-10-24T09:26:16.750Z,55.49
2022-10-24T09:31:20.032Z,55.04
2022-10-24T09:36:21.901Z,55.12
2022-10-24T09:41:27.726Z,56.19
2022-10-24T09:46:37.080Z,54.75
2022-10-24T09:51:47.683Z,54.63
2022-10-24T09:56:54.386Z,53.70
2022-10-24T10:02:12.718Z,53.68
2022-10-24T10:07:17.163Z,54.52
2022-10-24T10:12:38.045Z,53.33
2022-10-24T10:17:39.514Z,51.61
2022-10-24T10:22:40.984Z,51.12
2022-10-24T10:27:42.584Z,51.18
2022-10-24T10:32:59.317Z,51.30
2022-10-24T10:38:38.025Z,51.58
2022-10-24T10:43:51.578Z,51.51
2022-10-24T10:49:10.913Z,51.21
2022-10-24T10:54:31.123Z,51.31
2022-10-24T10:59:38.694Z,51.77
2022-10-24T11:04:45.166Z,51.96
2022-10-24T11:09:48.143Z,52.23
2022-10-24T11:15:02.216Z,52.21
2022-10-24T11:20:37.350Z,51.66
2022-10-24T11:25:40.016Z,52.20
2022-10-24T11:30:56.782Z,51.83
2022-10-24T11:36:13.874Z,52.24
2022-10-24T11:41:23.914Z,53.78
2022-10-24T11:46:28.601Z,52.51
2022-10-24T11:51:29.885Z,52.00
2022-10-24T11:56:35.611Z,50.65
2022-10-24T12:01:55.153Z,51.70
2022-10-24T12:07:23.921Z,51.62
2022-10-24T12:12:44.903Z,51.22
2022-10-24T12:18:04.040Z,50.93
2022-10-24T12:23:05.526Z,50.70
2022-10-24T12:28:12.198Z,51.46
2022-10-24T12:33:25.190Z,51.40
2022-10-24T12:38:29.497Z,52.27
2022-10-24T12:43:42.775Z,51.41
2022-10-24T12:49:10.313Z,51.95
2022-10-24T12:54:11.588Z,52.53
2022-10-24T12:59:22.750Z,53.71
2022-10-24T13:04:49.241Z,54.50
2022-10-24T13:10:34.757Z,53.78
2022-10-24T13:15:56.952Z,53.50
2022-10-24T13:21:54.895Z,53.94
2022-10-24T13:26:56.676Z,54.89
2022-10-24T13:32:04.150Z,55.13
2022-10-24T13:37:12.564Z,55.73
2022-10-24T13:42:43.214Z,55.73
2022-10-24T13:47:45.481Z,55.73
2022-10-24T13:52:49.573Z,56.13
2022-10-24T13:58:11.074Z,56.84
2022-10-24T14:03:13.677Z,57.21
2022-10-24T14:08:37.968Z,57.48
2022-10-24T14:13:44.609Z,58.19
2022-10-24T14:18:46.080Z,58.16
2022-10-24T14:23:55.793Z,57.54
2022-10-24T14:29:00.019Z,57.86
2022-10-24T14:34:03.021Z,58.07
2022-10-24T14:39:04.498Z,58.39
2022-10-24T14:44:06.275Z,57.97
2022-10-24T14:49:26.067Z,58.69
2022-10-24T14:54:31.567Z,58.27
2022-10-24T14:59:35.207Z,58.69
2022-10-24T15:04:38.729Z,58.17
2022-10-24T15:09:59.744Z,58.67
2022-10-24T15:15:27.751Z,59.03
2022-10-24T15:20:37.061Z,59.39
2022-10-24T15:25:42.056Z,59.59
2022-10-24T15:30:44.597Z,59.08
2022-10-24T15:35:46.053Z,59.02
2022-10-24T15:40:48.112Z,59.69
2022-10-24T15:45:49.581Z,58.45
2022-10-24T15:50:51.040Z,59.31
2022-10-24T15:55:52.493Z,58.79
2022-10-24T16:00:54.006Z,58.38
2022-10-24T16:05:56.035Z,59.42
2022-10-24T16:10:57.510Z,59.69
2022-10-24T16:15:58.993Z,59.78
2022-10-24T16:21:00.542Z,60.85
2022-10-24T16:26:02.003Z,61.23
2022-10-24T16:31:06.324Z,60.54
2022-10-24T16:36:07.880Z,60.97
2022-10-24T16:41:14.688Z,60.95
2022-10-24T16:46:17.804Z,61.93
2022-10-24T16:51:23.164Z,61.53
2022-10-24T16:56:24.711Z,60.73
2022-10-24T17:01:27.785Z,62.26
2022-10-24T17:06:29.827Z,60.85
2022-10-24T17:11:46.861Z,61.96
2022-10-24T17:16:48.341Z,62.87
2022-10-24T17:21:50.537Z,62.07
2022-10-24T17:26:52.060Z,61.78
2022-10-24T17:31:53.988Z,63.20
2022-10-24T17:37:05.437Z,62.51
2022-10-24T17:42:09.430Z,62.83
2022-10-24T17:47:11.013Z,63.79
2022-10-24T17:52:13.350Z,63.76
2022-10-24T17:57:14.662Z,64.08
2022-10-24T18:02:16.162Z,63.02
2022-10-24T18:07:17.704Z,64.70
2022-10-24T18:12:19.151Z,64.55
2022-10-24T18:17:20.600Z,64.62
2022-10-24T18:22:22.062Z,63.51
2022-10-24T18:27:23.539Z,64.42
2022-10-24T18:32:24.984Z,64.53
2022-10-24T18:37:26.669Z,64.00
2022-10-24T18:42:38.333Z,64.52
2022-10-24T18:47:40.099Z,63.63
2022-10-24T18:53:04.408Z,63.84
2022-10-24T18:58:10.455Z,63.97
2022-10-24T19:03:36.810Z,65.53
2022-10-24T19:08:38.297Z,64.30
2022-10-24T19:13:39.859Z,63.82
2022-10-24T19:18:41.307Z,63.93
2022-10-24T19:23:42.771Z,64.00
2022-10-24T19:28:44.265Z,63.58
2022-10-24T19:33:45.737Z,64.89
2022-10-24T19:38:47.219Z,63.62
2022-10-24T19:43:48.693Z,62.71
2022-10-24T19:48:50.281Z,62.64
2022-10-24T19:53:54.588Z,63.46
2022-10-24T19:58:56.077Z,63.48
2022-10-24T20:03:57.575Z,63.58
2022-10-24T20:08:59.038Z,64.32
2022-10-24T20:14:00.492Z,64.04
2022-10-24T20:19:01.977Z,65.28
2022-10-24T20:24:03.530Z,65.59
2022-10-24T20:29:05.053Z,64.74
2022-10-24T20:34:09.711Z,65.22
2022-10-24T20:39:11.992Z,64.64
2022-10-24T20:44:13.318Z,64.36
2022-10-24T20:49:14.815Z,64.22
2022-10-24T20:54:16.263Z,65.10
2022-10-24T20:59:17.790Z,64.08
2022-10-24T21:04:20.834Z,64.53
2022-10-24T21:09:22.555Z,63.82
2022-10-24T21:14:24.027Z,66.45
2022-10-24T21:19:26.655Z,65.12
2022-10-24T21:24:28.112Z,63.67
2022-10-24T21:29:33.917Z,64.29
2022-10-24T21:34:35.857Z,64.58
2022-10-24T21:39:37.305Z,64.26
2022-10-24T21:44:38.759Z,63.53
2022-10-24T21:49:40.220Z,63.52
2022-10-24T21:54:41.689Z,63.94
2022-10-24T21:59:43.178Z,63.82
2022-10-24T22:04:44.638Z,63.50
2022-10-24T22:09:46.117Z,63.42
2022-10-24T22:14:47.565Z,62.77
2022-10-24T22:19:49.007Z,62.49
2022-10-24T22:24:50.461Z,62.23
2022-10-24T22:29:51.911Z,62.51
2022-10-24T22:34:53.650Z,62.42
2022-10-24T22:39:55.368Z,61.86
2022-10-24T22:44:57.014Z,62.35
2022-10-24T22:50:10.520Z,62.48
2022-10-24T22:55:19.099Z,62.74
2022-10-24T23:00:20.833Z,62.48
2022-10-24T23:05:37.629Z,62.82
2022-10-24T23:10:39.956Z,63.24
2022-10-24T23:15:41.305Z,63.34
2022-10-24T23:20:50.404Z,63.30
2022-10-24T23:26:03.641Z,62.99
2022-10-24T23:31:05.474Z,63.10
2022-10-24T23:36:07.404Z,62.86
2022-10-24T23:41:09.613Z,62.99
2022-10-24T23:46:31.817Z,63.76
2022-10-24T23:51:40.987Z,62.96
2022-10-24T23:56:42.650Z,62.75
